sensor_id;sensor_type;location;lat;lon;timestamp;pressure;altitude;pressure_sealevel;temperature;humidity
60307;BME280;46155;52.364;6.580;2023-04-19T03:02:11;102576.59;;;8.31;98.82
60307;BME280;46155;52.364;6.580;2023-04-19T03:04:36;102537.38;;;8.13;98.84
60307;BME280;46155;52.364;6.580;2023-04-19T03:07:02;102578.28;;;8.30;98.65
60307;BME280;46155;52.364;6.580;2023-04-19T03:09:27;102575.53;;;8.28;98.25
60307;BME280;46155;52.364;6.580;2023-04-19T03:11:52;102573.66;;;8.27;97.79
60307;BME280;46155;52.364;6.580;2023-04-19T03:14:18;102570.75;;;8.24;97.73
60307;BME280;46155;52.364;6.580;2023-04-19T03:16:43;102567.53;;;8.27;97.45
60307;BME280;46155;52.364;6.580;2023-04-19T03:19:09;102560.31;;;8.16;96.22
60307;BME280;46155;52.364;6.580;2023-04-19T03:21:34;102554.16;;;8.15;95.67
60307;BME280;46155;52.364;6.580;2023-04-19T03:24:00;102563.22;;;8.19;95.83
60307;BME280;46155;52.364;6.580;2023-04-19T03:26:25;102566.00;;;8.20;94.98
60307;BME280;46155;52.364;6.580;2023-04-19T03:28:51;102568.59;;;8.20;94.06
60307;BME280;46155;52.364;6.580;2023-04-19T03:31:16;102564.31;;;8.21;94.20
60307;BME280;46155;52.364;6.580;2023-04-19T03:33:42;102566.47;;;8.16;91.58
60307;BME280;46155;52.364;6.580;2023-04-19T03:36:07;102561.69;;;8.21;91.01
60307;BME280;46155;52.364;6.580;2023-04-19T03:38:32;102542.91;;;8.16;90.27
60307;BME280;46155;52.364;6.580;2023-04-19T03:40:58;102554.91;;;8.23;88.77
60307;BME280;46155;52.364;6.580;2023-04-19T03:43:23;102564.13;;;8.19;87.14
60307;BME280;46155;52.364;6.580;2023-04-19T03:45:49;102554.63;;;8.20;86.19
60307;BME280;46155;52.364;6.580;2023-04-19T03:48:14;102553.66;;;8.19;85.86
60307;BME280;46155;52.364;6.580;2023-04-19T03:50:40;102564.00;;;8.26;85.27
60307;BME280;46155;52.364;6.580;2023-04-19T03:53:05;102557.38;;;8.21;84.49
60307;BME280;46155;52.364;6.580;2023-04-19T03:55:31;102563.53;;;8.22;84.17
60307;BME280;46155;52.364;6.580;2023-04-19T03:57:56;102551.22;;;8.12;83.34
60307;BME280;46155;52.364;6.580;2023-04-19T04:00:21;102558.31;;;8.13;81.73
60307;BME280;46155;52.364;6.580;2023-04-19T04:02:47;102562.03;;;8.15;81.19
60307;BME280;46155;52.364;6.580;2023-04-19T04:05:12;102557.69;;;8.16;80.21
60307;BME280;46155;52.364;6.580;2023-04-19T04:07:37;102554.63;;;8.11;79.57
60307;BME280;46155;52.364;6.580;2023-04-19T04:10:03;102561.84;;;8.14;79.71
60307;BME280;46155;52.364;6.580;2023-04-19T04:12:29;102553.25;;;8.06;79.23
60307;BME280;46155;52.364;6.580;2023-04-19T04:14:54;102558.94;;;8.02;78.33
60307;BME280;46155;52.364;6.580;2023-04-19T04:17:19;102562.66;;;8.04;77.29
60307;BME280;46155;52.364;6.580;2023-04-19T04:19:45;102568.66;;;8.03;76.21
60307;BME280;46155;52.364;6.580;2023-04-19T04:22:10;102564.03;;;8.00;76.11
60307;BME280;46155;52.364;6.580;2023-04-19T04:24:39;102564.50;;;7.96;74.70
60307;BME280;46155;52.364;6.580;2023-04-19T04:27:09;102568.19;;;7.98;75.87
60307;BME280;46155;52.364;6.580;2023-04-19T04:29:38;102564.19;;;7.93;75.20
60307;BME280;46155;52.364;6.580;2023-04-19T04:32:06;102576.34;;;7.92;75.09
60307;BME280;46155;52.364;6.580;2023-04-19T04:34:35;102566.50;;;7.81;74.96
60307;BME280;46155;52.364;6.580;2023-04-19T04:37:01;102576.81;;;7.88;73.56
60307;BME280;46155;52.364;6.580;2023-04-19T04:39:27;102572.66;;;7.73;70.40
60307;BME280;46155;52.364;6.580;2023-04-19T04:41:53;102580.19;;;7.70;70.18
60307;BME280;46155;52.364;6.580;2023-04-19T04:44:18;102585.09;;;7.67;68.29
60307;BME280;46155;52.364;6.580;2023-04-19T04:46:45;102580.00;;;7.51;68.55
60307;BME280;46155;52.364;6.580;2023-04-19T04:49:11;102576.78;;;7.45;68.83
60307;BME280;46155;52.364;6.580;2023-04-19T04:51:36;102573.66;;;7.31;67.68
60307;BME280;46155;52.364;6.580;2023-04-19T04:54:01;102587.81;;;7.24;66.65
60307;BME280;46155;52.364;6.580;2023-04-19T04:56:27;102568.41;;;7.05;66.74
60307;BME280;46155;52.364;6.580;2023-04-19T04:58:52;102582.50;;;6.98;66.83
60307;BME280;46155;52.364;6.580;2023-04-19T05:01:18;102599.28;;;7.00;66.84
60307;BME280;46155;52.364;6.580;2023-04-19T05:03:44;102559.41;;;6.77;67.31
60307;BME280;46155;52.364;6.580;2023-04-19T05:06:10;102611.06;;;6.97;67.42
60307;BME280;46155;52.364;6.580;2023-04-19T05:08:35;102595.94;;;6.77;67.46
60307;BME280;46155;52.364;6.580;2023-04-19T05:11:00;102565.16;;;6.57;67.53
60307;BME280;46155;52.364;6.580;2023-04-19T05:13:26;102544.03;;;6.46;67.35
60307;BME280;46155;52.364;6.580;2023-04-19T05:15:51;102563.91;;;6.62;68.41
60307;BME280;46155;52.364;6.580;2023-04-19T05:18:16;102563.56;;;6.50;67.40
60307;BME280;46155;52.364;6.580;2023-04-19T05:20:41;102553.41;;;6.44;68.09
60307;BME280;46155;52.364;6.580;2023-04-19T05:23:07;102566.78;;;6.47;68.08
60307;BME280;46155;52.364;6.580;2023-04-19T05:25:35;102583.25;;;6.55;68.49
60307;BME280;46155;52.364;6.580;2023-04-19T05:28:01;102559.78;;;6.30;68.67
60307;BME280;46155;52.364;6.580;2023-04-19T05:30:27;102551.66;;;6.36;68.84
60307;BME280;46155;52.364;6.580;2023-04-19T05:32:53;102564.72;;;6.36;69.05
60307;BME280;46155;52.364;6.580;2023-04-19T05:35:18;102571.03;;;6.38;68.92
60307;BME280;46155;52.364;6.580;2023-04-19T05:37:44;102585.03;;;6.47;69.49
60307;BME280;46155;52.364;6.580;2023-04-19T05:40:10;102543.44;;;6.15;69.38
60307;BME280;46155;52.364;6.580;2023-04-19T05:42:35;102591.56;;;6.35;69.90
60307;BME280;46155;52.364;6.580;2023-04-19T05:45:01;102559.72;;;6.22;70.26
60307;BME280;46155;52.364;6.580;2023-04-19T05:47:26;102558.47;;;6.18;70.03
60307;BME280;46155;52.364;6.580;2023-04-19T05:49:52;102572.66;;;6.29;70.36
60307;BME280;46155;52.364;6.580;2023-04-19T05:52:17;102584.94;;;6.30;69.88
60307;BME280;46155;52.364;6.580;2023-04-19T05:54:42;102596.91;;;6.52;70.89
60307;BME280;46155;52.364;6.580;2023-04-19T05:57:08;102618.84;;;6.54;69.96
60307;BME280;46155;52.364;6.580;2023-04-19T05:59:33;102609.94;;;6.52;69.43
60307;BME280;46155;52.364;6.580;2023-04-19T06:01:59;102617.81;;;6.61;69.72
60307;BME280;46155;52.364;6.580;2023-04-19T06:04:25;102622.31;;;6.71;69.64
60307;BME280;46155;52.364;6.580;2023-04-19T06:06:51;102623.63;;;6.83;69.07
60307;BME280;46155;52.364;6.580;2023-04-19T06:09:16;102626.88;;;6.65;68.39
60307;BME280;46155;52.364;6.580;2023-04-19T06:11:45;102629.88;;;6.77;69.24
60307;BME280;46155;52.364;6.580;2023-04-19T06:14:11;102627.31;;;6.85;67.91
60307;BME280;46155;52.364;6.580;2023-04-19T06:16:37;102632.81;;;7.13;68.32
60307;BME280;46155;52.364;6.580;2023-04-19T06:19:03;102640.94;;;7.07;69.06
60307;BME280;46155;52.364;6.580;2023-04-19T06:21:31;102639.22;;;7.08;67.73
60307;BME280;46155;52.364;6.580;2023-04-19T06:23:57;102631.22;;;6.98;67.47
60307;BME280;46155;52.364;6.580;2023-04-19T06:26:22;102634.06;;;6.83;67.98
60307;BME280;46155;52.364;6.580;2023-04-19T06:28:47;102635.56;;;6.81;68.27
60307;BME280;46155;52.364;6.580;2023-04-19T06:31:12;102623.28;;;6.80;68.12
60307;BME280;46155;52.364;6.580;2023-04-19T06:33:38;102622.06;;;6.85;68.25
60307;BME280;46155;52.364;6.580;2023-04-19T06:36:03;102641.25;;;7.11;68.55
60307;BME280;46155;52.364;6.580;2023-04-19T06:38:29;102633.44;;;7.19;68.42
60307;BME280;46155;52.364;6.580;2023-04-19T06:40:54;102640.06;;;7.24;66.28
60307;BME280;46155;52.364;6.580;2023-04-19T06:43:20;102618.50;;;7.18;67.24
60307;BME280;46155;52.364;6.580;2023-04-19T06:45:46;102621.28;;;7.20;66.58
60307;BME280;46155;52.364;6.580;2023-04-19T06:48:11;102642.47;;;7.14;66.56
60307;BME280;46155;52.364;6.580;2023-04-19T06:50:36;102641.28;;;7.19;66.90
60307;BME280;46155;52.364;6.580;2023-04-19T06:53:02;102633.00;;;7.23;66.11
60307;BME280;46155;52.364;6.580;2023-04-19T06:55:27;102643.31;;;7.39;66.10
60307;BME280;46155;52.364;6.580;2023-04-19T06:57:52;102641.00;;;7.34;65.47
60307;BME280;46155;52.364;6.580;2023-04-19T07:00:18;102623.81;;;7.36;65.02
60307;BME280;46155;52.364;6.580;2023-04-19T07:02:43;102635.78;;;7.43;64.57
60307;BME280;46155;52.364;6.580;2023-04-19T07:05:08;102641.94;;;7.34;64.65
60307;BME280;46155;52.364;6.580;2023-04-19T07:07:34;102640.38;;;7.28;64.79
60307;BME280;46155;52.364;6.580;2023-04-19T07:10:02;102622.09;;;7.36;64.76
60307;BME280;46155;52.364;6.580;2023-04-19T07:12:27;102651.53;;;7.51;64.57
60307;BME280;46155;52.364;6.580;2023-04-19T07:14:52;102649.06;;;7.62;64.26
60307;BME280;46155;52.364;6.580;2023-04-19T07:17:21;102630.63;;;7.69;65.55
60307;BME280;46155;52.364;6.580;2023-04-19T07:19:47;102631.88;;;7.90;64.32
60307;BME280;46155;52.364;6.580;2023-04-19T07:22:13;102636.81;;;7.96;63.79
60307;BME280;46155;52.364;6.580;2023-04-19T07:24:38;102629.88;;;8.22;64.11
60307;BME280;46155;52.364;6.580;2023-04-19T07:27:06;102634.00;;;8.29;62.28
60307;BME280;46155;52.364;6.580;2023-04-19T07:29:33;102635.25;;;8.33;61.94
60307;BME280;46155;52.364;6.580;2023-04-19T07:31:58;102635.41;;;8.08;62.01
60307;BME280;46155;52.364;6.580;2023-04-19T07:34:25;102630.00;;;8.06;61.57
60307;BME280;46155;52.364;6.580;2023-04-19T07:36:51;102639.72;;;8.16;61.18
60307;BME280;46155;52.364;6.580;2023-04-19T07:39:16;102631.41;;;8.38;62.04
60307;BME280;46155;52.364;6.580;2023-04-19T07:41:41;102629.97;;;8.68;62.19
60307;BME280;46155;52.364;6.580;2023-04-19T07:44:07;102630.81;;;8.94;61.20
60307;BME280;46155;52.364;6.580;2023-04-19T07:46:32;102626.81;;;8.89;59.28
60307;BME280;46155;52.364;6.580;2023-04-19T07:48:57;102627.19;;;8.75;59.48
60307;BME280;46155;52.364;6.580;2023-04-19T07:51:22;102631.81;;;8.69;59.78
60307;BME280;46155;52.364;6.580;2023-04-19T07:53:48;102628.06;;;8.84;60.05
60307;BME280;46155;52.364;6.580;2023-04-19T07:56:14;102623.44;;;8.90;59.46
60307;BME280;46155;52.364;6.580;2023-04-19T07:58:40;102626.25;;;8.83;58.71
60307;BME280;46155;52.364;6.580;2023-04-19T08:01:05;102627.50;;;8.69;58.34
60307;BME280;46155;52.364;6.580;2023-04-19T08:03:32;102627.22;;;9.03;58.61
60307;BME280;46155;52.364;6.580;2023-04-19T08:06:00;102610.97;;;9.16;58.49
60307;BME280;46155;52.364;6.580;2023-04-19T08:08:26;102615.78;;;9.39;58.62
60307;BME280;46155;52.364;6.580;2023-04-19T08:10:52;102610.91;;;9.33;57.48
60307;BME280;46155;52.364;6.580;2023-04-19T08:13:19;102605.94;;;9.55;58.32
60307;BME280;46155;52.364;6.580;2023-04-19T08:15:44;102612.91;;;9.74;58.69
60307;BME280;46155;52.364;6.580;2023-04-19T08:18:10;102616.00;;;9.32;56.36
60307;BME280;46155;52.364;6.580;2023-04-19T08:20:35;102613.06;;;9.28;57.52
60307;BME280;46155;52.364;6.580;2023-04-19T08:23:01;102622.34;;;9.25;56.76
60307;BME280;46155;52.364;6.580;2023-04-19T08:25:26;102612.22;;;9.38;57.03
60307;BME280;46155;52.364;6.580;2023-04-19T08:27:55;102602.75;;;9.49;55.44
60307;BME280;46155;52.364;6.580;2023-04-19T08:30:21;102605.34;;;9.77;55.14
60307;BME280;46155;52.364;6.580;2023-04-19T08:32:47;102593.34;;;9.89;55.21
60307;BME280;46155;52.364;6.580;2023-04-19T08:35:12;102602.16;;;9.90;52.90
60307;BME280;46155;52.364;6.580;2023-04-19T08:37:38;102604.56;;;9.97;53.28
60307;BME280;46155;52.364;6.580;2023-04-19T08:40:03;102625.97;;;10.21;53.62
60307;BME280;46155;52.364;6.580;2023-04-19T08:42:30;102607.16;;;10.16;53.11
60307;BME280;46155;52.364;6.580;2023-04-19T08:44:56;102619.50;;;10.17;50.47
60307;BME280;46155;52.364;6.580;2023-04-19T08:47:24;102609.06;;;10.27;50.94
60307;BME280;46155;52.364;6.580;2023-04-19T08:49:51;102613.03;;;10.32;51.20
60307;BME280;46155;52.364;6.580;2023-04-19T08:52:18;102609.06;;;10.27;51.84
60307;BME280;46155;52.364;6.580;2023-04-19T08:54:45;102612.72;;;10.38;49.19
60307;BME280;46155;52.364;6.580;2023-04-19T08:57:10;102603.41;;;10.23;48.81
60307;BME280;46155;52.364;6.580;2023-04-19T08:59:36;102603.13;;;10.20;48.51
60307;BME280;46155;52.364;6.580;2023-04-19T09:02:02;102586.59;;;10.40;49.18
60307;BME280;46155;52.364;6.580;2023-04-19T09:04:27;102590.47;;;10.54;49.95
60307;BME280;46155;52.364;6.580;2023-04-19T09:06:53;102587.56;;;11.00;48.18
60307;BME280;46155;52.364;6.580;2023-04-19T09:09:21;102587.56;;;11.00;49.70
60307;BME280;46155;52.364;6.580;2023-04-19T09:11:47;102583.34;;;10.92;47.90
60307;BME280;46155;52.364;6.580;2023-04-19T09:14:16;102589.63;;;10.94;47.39
60307;BME280;46155;52.364;6.580;2023-04-19T09:16:43;102574.69;;;11.14;48.26
60307;BME280;46155;52.364;6.580;2023-04-19T09:19:08;102566.72;;;10.73;46.18
60307;BME280;46155;52.364;6.580;2023-04-19T09:21:34;102578.19;;;10.83;47.15
60307;BME280;46155;52.364;6.580;2023-04-19T09:24:01;102585.72;;;10.99;45.97
60307;BME280;46155;52.364;6.580;2023-04-19T09:26:26;102565.88;;;11.34;46.99
60307;BME280;46155;52.364;6.580;2023-04-19T09:29:06;102576.81;;;11.18;44.27
60307;BME280;46155;52.364;6.580;2023-04-19T09:31:33;102566.53;;;11.21;44.71
60307;BME280;46155;52.364;6.580;2023-04-19T09:34:16;102575.13;;;11.60;44.38
60307;BME280;46155;52.364;6.580;2023-04-19T09:36:42;102572.88;;;11.54;44.51
60307;BME280;46155;52.364;6.580;2023-04-19T09:39:07;102572.75;;;11.32;45.54
60307;BME280;46155;52.364;6.580;2023-04-19T09:41:33;102575.38;;;11.42;43.58
60307;BME280;46155;52.364;6.580;2023-04-19T09:44:11;102568.38;;;11.32;46.12
60307;BME280;46155;52.364;6.580;2023-04-19T09:46:40;102578.41;;;11.26;43.15
60307;BME280;46155;52.364;6.580;2023-04-19T09:51:44;102560.91;;;11.16;41.86
60307;BME280;46155;52.364;6.580;2023-04-19T09:54:11;102554.75;;;11.16;42.80
60307;BME280;46155;52.364;6.580;2023-04-19T09:56:37;102558.00;;;11.34;40.31
60307;BME280;46155;52.364;6.580;2023-04-19T09:59:05;102552.25;;;11.48;40.18
60307;BME280;46155;52.364;6.580;2023-04-19T10:01:38;102551.56;;;11.41;39.25
60307;BME280;46155;52.364;6.580;2023-04-19T10:04:04;102552.22;;;11.38;39.52
60307;BME280;46155;52.364;6.580;2023-04-19T10:06:34;102551.66;;;11.73;41.08
60307;BME280;46155;52.364;6.580;2023-04-19T10:09:01;102567.34;;;11.61;38.23
60307;BME280;46155;52.364;6.580;2023-04-19T10:11:36;102548.28;;;11.64;38.41
60307;BME280;46155;52.364;6.580;2023-04-19T10:14:09;102554.16;;;11.71;37.25
60307;BME280;46155;52.364;6.580;2023-04-19T10:16:37;102546.91;;;11.89;38.21
60307;BME280;46155;52.364;6.580;2023-04-19T10:19:07;102552.03;;;11.98;37.36
60307;BME280;46155;52.364;6.580;2023-04-19T10:21:34;102534.91;;;11.93;36.62
60307;BME280;46155;52.364;6.580;2023-04-19T10:24:00;102541.94;;;11.82;36.09
60307;BME280;46155;52.364;6.580;2023-04-19T10:26:26;102524.78;;;11.87;34.93
60307;BME280;46155;52.364;6.580;2023-04-19T10:28:53;102524.25;;;12.02;36.00
60307;BME280;46155;52.364;6.580;2023-04-19T10:31:20;102513.22;;;12.28;36.23
60307;BME280;46155;52.364;6.580;2023-04-19T10:33:48;102516.94;;;12.20;35.33
60307;BME280;46155;52.364;6.580;2023-04-19T10:36:14;102513.84;;;11.93;35.96
60307;BME280;46155;52.364;6.580;2023-04-19T10:38:45;102509.47;;;12.14;37.63
60307;BME280;46155;52.364;6.580;2023-04-19T10:41:17;102513.84;;;12.36;37.27
60307;BME280;46155;52.364;6.580;2023-04-19T10:44:28;102513.16;;;12.16;35.86
60307;BME280;46155;52.364;6.580;2023-04-19T10:48:57;102501.97;;;12.63;36.81
60307;BME280;46155;52.364;6.580;2023-04-19T10:53:59;102506.06;;;12.37;37.18
60307;BME280;46155;52.364;6.580;2023-04-19T11:01:40;102483.91;;;12.68;40.49
60307;BME280;46155;52.364;6.580;2023-04-19T11:09:29;102458.59;;;12.48;40.17
60307;BME280;46155;52.364;6.580;2023-04-19T11:14:30;102451.38;;;12.23;39.60
60307;BME280;46155;52.364;6.580;2023-04-19T11:16:57;102451.38;;;12.23;40.93
60307;BME280;46155;52.364;6.580;2023-04-19T11:19:23;102447.00;;;12.46;40.55
60307;BME280;46155;52.364;6.580;2023-04-19T11:21:48;102442.28;;;12.64;42.06
60307;BME280;46155;52.364;6.580;2023-04-19T11:24:14;102441.75;;;12.80;38.95
60307;BME280;46155;52.364;6.580;2023-04-19T11:26:43;102435.38;;;12.88;36.10
60307;BME280;46155;52.364;6.580;2023-04-19T11:29:09;102432.41;;;12.95;34.83
60307;BME280;46155;52.364;6.580;2023-04-19T11:31:35;102430.75;;;13.19;35.79
60307;BME280;46155;52.364;6.580;2023-04-19T11:34:02;102436.09;;;12.97;34.70
60307;BME280;46155;52.364;6.580;2023-04-19T11:36:27;102439.75;;;12.99;34.69
60307;BME280;46155;52.364;6.580;2023-04-19T11:38:53;102419.06;;;13.16;34.85
60307;BME280;46155;52.364;6.580;2023-04-19T11:41:18;102427.41;;;13.34;34.29
60307;BME280;46155;52.364;6.580;2023-04-19T11:43:44;102412.78;;;13.61;34.14
60307;BME280;46155;52.364;6.580;2023-04-19T11:46:12;102414.84;;;13.41;33.81
60307;BME280;46155;52.364;6.580;2023-04-19T11:48:53;102414.22;;;13.34;33.71
60307;BME280;46155;52.364;6.580;2023-04-19T11:51:19;102410.25;;;13.27;32.52
60307;BME280;46155;52.364;6.580;2023-04-19T11:53:44;102413.56;;;13.13;32.07
60307;BME280;46155;52.364;6.580;2023-04-19T11:56:10;102394.84;;;13.33;32.94
60307;BME280;46155;52.364;6.580;2023-04-19T11:58:37;102389.97;;;13.50;31.95
60307;BME280;46155;52.364;6.580;2023-04-19T12:01:04;102394.44;;;13.39;31.36
60307;BME280;46155;52.364;6.580;2023-04-19T12:03:32;102407.94;;;13.32;32.39
60307;BME280;46155;52.364;6.580;2023-04-19T12:06:01;102395.34;;;13.39;31.46
60307;BME280;46155;52.364;6.580;2023-04-19T12:08:37;102369.53;;;13.12;31.34
60307;BME280;46155;52.364;6.580;2023-04-19T12:11:03;102372.16;;;13.35;32.64
60307;BME280;46155;52.364;6.580;2023-04-19T12:13:30;102376.97;;;13.29;32.13
60307;BME280;46155;52.364;6.580;2023-04-19T12:15:56;102373.09;;;13.48;33.29
60307;BME280;46155;52.364;6.580;2023-04-19T12:18:22;102371.25;;;13.47;32.13
60307;BME280;46155;52.364;6.580;2023-04-19T12:20:49;102378.47;;;13.49;33.37
60307;BME280;46155;52.364;6.580;2023-04-19T12:23:16;102363.69;;;13.51;32.79
60307;BME280;46155;52.364;6.580;2023-04-19T12:25:44;102378.84;;;13.54;33.80
60307;BME280;46155;52.364;6.580;2023-04-19T12:28:14;102364.81;;;13.31;33.17
60307;BME280;46155;52.364;6.580;2023-04-19T12:30:40;102357.94;;;13.45;34.73
60307;BME280;46155;52.364;6.580;2023-04-19T12:33:06;102366.88;;;13.59;34.26
60307;BME280;46155;52.364;6.580;2023-04-19T12:35:32;102363.69;;;13.51;33.68
60307;BME280;46155;52.364;6.580;2023-04-19T12:37:58;102362.31;;;13.45;33.17
60307;BME280;46155;52.364;6.580;2023-04-19T12:40:25;102354.28;;;13.31;34.60
60307;BME280;46155;52.364;6.580;2023-04-19T12:42:51;102352.91;;;13.36;36.60
60307;BME280;46155;52.364;6.580;2023-04-19T12:45:17;102360.03;;;13.37;36.97
60307;BME280;46155;52.364;6.580;2023-04-19T12:47:44;102347.94;;;13.29;36.37
60307;BME280;46155;52.364;6.580;2023-04-19T12:50:11;102351.75;;;13.33;36.91
60307;BME280;46155;52.364;6.580;2023-04-19T12:52:37;102338.47;;;13.31;37.47
60307;BME280;46155;52.364;6.580;2023-04-19T12:55:02;102339.84;;;13.50;39.10
60307;BME280;46155;52.364;6.580;2023-04-19T12:57:28;102336.41;;;13.39;37.65
60307;BME280;46155;52.364;6.580;2023-04-19T12:59:54;102333.75;;;13.51;37.73
60307;BME280;46155;52.364;6.580;2023-04-19T13:02:19;102338.19;;;13.64;38.33
60307;BME280;46155;52.364;6.580;2023-04-19T13:04:45;102335.97;;;13.82;36.67
60307;BME280;46155;52.364;6.580;2023-04-19T13:07:10;102315.69;;;13.69;36.59
60307;BME280;46155;52.364;6.580;2023-04-19T13:09:35;102305.66;;;13.51;36.32
60307;BME280;46155;52.364;6.580;2023-04-19T13:12:00;102313.78;;;13.54;37.55
60307;BME280;46155;52.364;6.580;2023-04-19T13:14:26;102314.09;;;13.71;36.45
60307;BME280;46155;52.364;6.580;2023-04-19T13:16:52;102308.69;;;13.69;36.79
60307;BME280;46155;52.364;6.580;2023-04-19T13:19:18;102297.66;;;13.75;36.89
60307;BME280;46155;52.364;6.580;2023-04-19T13:21:43;102302.25;;;13.77;36.42
60307;BME280;46155;52.364;6.580;2023-04-19T13:24:09;102303.22;;;13.54;37.00
60307;BME280;46155;52.364;6.580;2023-04-19T13:26:34;102292.09;;;13.47;38.17
60307;BME280;46155;52.364;6.580;2023-04-19T13:29:00;102291.53;;;13.51;38.06
60307;BME280;46155;52.364;6.580;2023-04-19T13:31:26;102289.78;;;13.63;38.51
60307;BME280;46155;52.364;6.580;2023-04-19T13:33:52;102273.84;;;13.62;37.25
60307;BME280;46155;52.364;6.580;2023-04-19T13:36:17;102285.88;;;13.70;37.84
60307;BME280;46155;52.364;6.580;2023-04-19T13:38:43;102278.06;;;13.71;36.65
60307;BME280;46155;52.364;6.580;2023-04-19T13:41:09;102276.22;;;13.70;37.18
60307;BME280;46155;52.364;6.580;2023-04-19T13:43:34;102274.53;;;13.59;37.56
60307;BME280;46155;52.364;6.580;2023-04-19T13:45:59;102271.63;;;13.80;37.98
60307;BME280;46155;52.364;6.580;2023-04-19T13:48:25;102271.53;;;13.66;36.24
60307;BME280;46155;52.364;6.580;2023-04-19T13:50:55;102266.81;;;13.74;37.38
60307;BME280;46155;52.364;6.580;2023-04-19T13:53:21;102269.94;;;13.68;38.20
60307;BME280;46155;52.364;6.580;2023-04-19T13:55:47;102253.72;;;13.75;38.41
60307;BME280;46155;52.364;6.580;2023-04-19T13:58:12;102260.53;;;13.60;37.19
60307;BME280;46155;52.364;6.580;2023-04-19T14:00:38;102245.72;;;13.62;38.85
60307;BME280;46155;52.364;6.580;2023-04-19T14:03:03;102243.44;;;13.55;37.91
60307;BME280;46155;52.364;6.580;2023-04-19T14:05:29;102248.16;;;13.59;38.37
60307;BME280;46155;52.364;6.580;2023-04-19T14:07:54;102238.78;;;13.76;38.66
60307;BME280;46155;52.364;6.580;2023-04-19T14:10:20;102232.59;;;13.75;36.99
60307;BME280;46155;52.364;6.580;2023-04-19T14:12:45;102228.53;;;13.81;38.14
60307;BME280;46155;52.364;6.580;2023-04-19T14:15:11;102231.84;;;13.90;38.79
60307;BME280;46155;52.364;6.580;2023-04-19T14:17:37;102227.47;;;13.90;37.37
60307;BME280;46155;52.364;6.580;2023-04-19T14:20:03;102229.16;;;13.76;36.97
60307;BME280;46155;52.364;6.580;2023-04-19T14:22:29;102230.56;;;13.71;38.02
60307;BME280;46155;52.364;6.580;2023-04-19T14:24:56;102220.00;;;13.71;38.06
60307;BME280;46155;52.364;6.580;2023-04-19T14:27:21;102223.53;;;13.72;38.61
60307;BME280;46155;52.364;6.580;2023-04-19T14:29:46;102223.06;;;13.77;38.54
60307;BME280;46155;52.364;6.580;2023-04-19T14:32:12;102214.34;;;13.78;39.97
60307;BME280;46155;52.364;6.580;2023-04-19T14:34:38;102231.25;;;13.94;39.78
60307;BME280;46155;52.364;6.580;2023-04-19T14:37:03;102222.47;;;13.82;39.98
60307;BME280;46155;52.364;6.580;2023-04-19T14:39:28;102212.28;;;13.74;39.29
60307;BME280;46155;52.364;6.580;2023-04-19T14:41:54;102210.41;;;13.60;38.91
60307;BME280;46155;52.364;6.580;2023-04-19T14:44:21;102226.97;;;13.46;39.42
60307;BME280;46155;52.364;6.580;2023-04-19T14:46:46;102200.81;;;13.49;39.72
60307;BME280;46155;52.364;6.580;2023-04-19T14:49:11;102201.28;;;13.43;39.84
60307;BME280;46155;52.364;6.580;2023-04-19T14:51:37;102195.31;;;13.46;40.57
60307;BME280;46155;52.364;6.580;2023-04-19T14:54:02;102191.56;;;13.67;40.11
60307;BME280;46155;52.364;6.580;2023-04-19T14:56:27;102191.28;;;13.76;38.50
60307;BME280;46155;52.364;6.580;2023-04-19T14:58:53;102193.44;;;13.82;38.79
60307;BME280;46155;52.364;6.580;2023-04-19T15:01:18;102183.44;;;13.64;38.53
60307;BME280;46155;52.364;6.580;2023-04-19T15:03:43;102191.84;;;13.47;39.29
60307;BME280;46155;52.364;6.580;2023-04-19T15:06:09;102181.28;;;13.58;38.98
60307;BME280;46155;52.364;6.580;2023-04-19T15:08:34;102180.81;;;13.77;39.65
60307;BME280;46155;52.364;6.580;2023-04-19T15:10:59;102167.00;;;13.93;39.65
60307;BME280;46155;52.364;6.580;2023-04-19T15:13:25;102166.84;;;13.92;38.67
60307;BME280;46155;52.364;6.580;2023-04-19T15:15:50;102157.22;;;13.92;38.62
60307;BME280;46155;52.364;6.580;2023-04-19T15:18:16;102161.94;;;13.71;39.14
60307;BME280;46155;52.364;6.580;2023-04-19T15:20:41;102168.31;;;13.75;39.48
60307;BME280;46155;52.364;6.580;2023-04-19T15:23:07;102169.84;;;13.71;39.63
60307;BME280;46155;52.364;6.580;2023-04-19T15:25:33;102152.25;;;13.84;40.22
60307;BME280;46155;52.364;6.580;2023-04-19T15:27:58;102165.44;;;13.84;38.54
60307;BME280;46155;52.364;6.580;2023-04-19T15:30:24;102161.53;;;13.65;38.64
60307;BME280;46155;52.364;6.580;2023-04-19T15:32:50;102163.28;;;13.53;39.06
60307;BME280;46155;52.364;6.580;2023-04-19T15:35:15;102146.91;;;13.45;38.51
60307;BME280;46155;52.364;6.580;2023-04-19T15:37:40;102155.78;;;13.59;39.70
60307;BME280;46155;52.364;6.580;2023-04-19T15:40:08;102153.81;;;13.68;38.82
60307;BME280;46155;52.364;6.580;2023-04-19T15:42:34;102159.41;;;13.73;40.93
60307;BME280;46155;52.364;6.580;2023-04-19T15:45:00;102157.91;;;13.76;37.59
60307;BME280;46155;52.364;6.580;2023-04-19T15:47:25;102152.97;;;13.69;38.31
60307;BME280;46155;52.364;6.580;2023-04-19T15:49:50;102157.84;;;13.63;37.57
60307;BME280;46155;52.364;6.580;2023-04-19T15:52:17;102152.50;;;13.75;37.76
60307;BME280;46155;52.364;6.580;2023-04-19T15:54:43;102150.34;;;13.69;38.34
60307;BME280;46155;52.364;6.580;2023-04-19T15:57:08;102145.69;;;13.65;38.81
60307;BME280;46155;52.364;6.580;2023-04-19T15:59:33;102139.06;;;13.58;38.85
60307;BME280;46155;52.364;6.580;2023-04-19T16:01:59;102148.94;;;13.49;39.08
60307;BME280;46155;52.364;6.580;2023-04-19T16:04:24;102149.91;;;13.38;38.58
60307;BME280;46155;52.364;6.580;2023-04-19T16:06:50;102146.25;;;13.24;38.13
60307;BME280;46155;52.364;6.580;2023-04-19T16:09:15;102153.38;;;13.25;38.56
60307;BME280;46155;52.364;6.580;2023-04-19T16:11:40;102153.84;;;13.31;38.17